createdAt,value
2017-07-28T00:01:43.602Z,4.50
2017-07-28T00:04:10.399Z,4.33
2017-07-28T00:06:37.164Z,4.93
2017-07-28T00:09:03.964Z,5.03
2017-07-28T00:11:30.762Z,4.90
2017-07-28T00:13:57.523Z,4.30
2017-07-28T00:16:24.294Z,4.47
2017-07-28T00:18:51.089Z,5.37
2017-07-28T00:21:17.843Z,4.53
2017-07-28T00:23:44.579Z,4.20
2017-07-28T00:26:11.382Z,4.07
2017-07-28T00:28:38.114Z,4.23
2017-07-28T00:31:04.859Z,4.60
2017-07-28T00:33:31.662Z,4.30
2017-07-28T00:35:58.402Z,4.37
2017-07-28T00:38:25.158Z,3.57
2017-07-28T00:40:51.927Z,3.40
2017-07-28T00:43:18.723Z,3.83
2017-07-28T00:45:45.475Z,3.20
2017-07-28T00:48:12.256Z,4.33
2017-07-28T00:50:39.009Z,3.50
2017-07-28T00:53:05.774Z,4.10
2017-07-28T00:55:32.578Z,3.63
2017-07-28T00:57:59.331Z,3.90
2017-07-28T01:00:26.111Z,3.83
2017-07-28T01:02:52.938Z,4.27
2017-07-28T01:05:19.691Z,5.03
2017-07-28T01:07:46.433Z,3.87
2017-07-28T01:10:13.212Z,4.73
2017-07-28T01:12:39.956Z,4.10
2017-07-28T01:15:06.706Z,4.30
2017-07-28T01:17:33.534Z,4.53
2017-07-28T01:20:00.298Z,4.80
2017-07-28T01:22:27.062Z,3.87
2017-07-28T01:24:53.858Z,4.70
2017-07-28T01:27:20.614Z,5.60
2017-07-28T01:29:47.375Z,6.00
2017-07-28T01:32:14.155Z,4.60
2017-07-28T01:34:40.918Z,5.50
2017-07-28T01:37:07.686Z,4.67
2017-07-28T01:39:34.480Z,5.80
2017-07-28T01:42:01.255Z,4.67
2017-07-28T01:44:28.330Z,4.20
2017-07-28T01:46:55.132Z,5.10
2017-07-28T01:49:21.908Z,5.10
2017-07-28T01:51:48.682Z,5.00
2017-07-28T01:54:15.470Z,5.37
2017-07-28T01:56:42.250Z,5.00
2017-07-28T01:59:09.025Z,5.17
2017-07-28T02:01:35.837Z,5.17
2017-07-28T02:04:02.618Z,5.53
2017-07-28T02:06:29.392Z,5.10
2017-07-28T02:08:56.198Z,4.90
2017-07-28T02:11:22.951Z,4.33
2017-07-28T02:13:49.699Z,4.30
2017-07-28T02:16:16.495Z,4.90
2017-07-28T02:18:43.258Z,4.87
2017-07-28T02:21:11.121Z,5.03
2017-07-28T02:23:37.912Z,4.67
2017-07-28T02:26:04.673Z,4.70
2017-07-28T02:28:31.462Z,5.17
2017-07-28T02:30:58.253Z,6.50
2017-07-28T02:33:25.002Z,6.00
2017-07-28T02:35:51.763Z,6.03
2017-07-28T02:38:19.273Z,5.30
2017-07-28T02:40:46.011Z,5.97
2017-07-28T02:43:12.787Z,5.13
2017-07-28T02:45:40.211Z,6.23
2017-07-28T02:48:06.971Z,5.23
2017-07-28T02:50:33.716Z,6.13
2017-07-28T02:53:00.529Z,6.20
2017-07-28T02:55:27.297Z,5.93
2017-07-28T02:57:54.051Z,6.37
2017-07-28T03:00:20.977Z,6.53
2017-07-28T03:02:47.746Z,6.57
2017-07-28T03:05:14.501Z,5.80
2017-07-28T03:07:41.278Z,5.87
2017-07-28T03:10:08.047Z,6.33
2017-07-28T03:12:34.826Z,6.27
2017-07-28T03:15:01.639Z,5.60
2017-07-28T03:17:28.383Z,5.07
2017-07-28T03:19:55.119Z,5.47
2017-07-28T03:22:21.943Z,5.80
2017-07-28T03:24:49.346Z,5.53
2017-07-28T03:27:16.127Z,6.13
2017-07-28T03:29:42.927Z,6.07
2017-07-28T03:32:09.713Z,5.90
2017-07-28T03:34:36.464Z,5.33
2017-07-28T03:37:03.251Z,5.10
2017-07-28T03:39:30.023Z,5.30
2017-07-28T03:41:56.792Z,6.23
2017-07-28T03:44:23.610Z,5.77
2017-07-28T03:46:50.378Z,5.13
2017-07-28T03:49:17.180Z,5.50
2017-07-28T03:51:43.993Z,5.60
2017-07-28T03:54:11.512Z,6.50
2017-07-28T03:56:38.263Z,7.40
2017-07-28T03:59:05.065Z,5.87
2017-07-28T04:01:31.846Z,6.50
2017-07-28T04:03:58.599Z,5.43
2017-07-28T04:06:25.415Z,7.07
2017-07-28T04:08:52.187Z,5.47
2017-07-28T04:11:18.994Z,5.93
2017-07-28T04:13:45.802Z,5.90
2017-07-28T04:16:12.570Z,5.77
2017-07-28T04:18:39.317Z,6.17
2017-07-28T04:21:06.120Z,5.00
2017-07-28T04:23:32.900Z,6.20
2017-07-28T04:26:00.285Z,5.60
2017-07-28T04:28:27.077Z,5.80
2017-07-28T04:30:53.823Z,5.27
2017-07-28T04:33:20.577Z,6.10
2017-07-28T04:35:47.399Z,6.03
2017-07-28T04:38:14.149Z,5.97
2017-07-28T04:40:40.900Z,5.93
2017-07-28T04:43:07.686Z,5.93
2017-07-28T04:45:35.191Z,6.10
2017-07-28T04:48:02.004Z,5.80
2017-07-28T04:50:28.810Z,6.30
2017-07-28T04:52:55.921Z,5.37
2017-07-28T04:55:22.698Z,5.73
2017-07-28T04:57:50.242Z,5.20
2017-07-28T05:00:16.992Z,5.30
2017-07-28T05:02:43.766Z,6.23
2017-07-28T05:05:10.555Z,5.47
2017-07-28T05:07:37.354Z,6.27
2017-07-28T05:10:04.107Z,5.77
2017-07-28T05:12:30.965Z,5.67
2017-07-28T05:14:57.730Z,7.80
2017-07-28T05:17:24.998Z,4.90
2017-07-28T05:19:51.784Z,6.40
2017-07-28T05:22:18.552Z,6.90
2017-07-28T05:24:45.308Z,6.27
2017-07-28T05:27:12.853Z,6.20
2017-07-28T05:29:39.633Z,5.33
2017-07-28T05:32:06.403Z,6.70
2017-07-28T05:34:33.214Z,6.80
2017-07-28T05:36:59.994Z,8.30
2017-07-28T05:39:26.758Z,4.80
2017-07-28T05:41:53.593Z,4.90
2017-07-28T05:44:20.358Z,5.73
2017-07-28T05:46:47.155Z,9.03
2017-07-28T05:49:13.944Z,6.23
2017-07-28T05:51:40.696Z,5.87
2017-07-28T05:54:07.482Z,4.90
2017-07-28T05:56:34.594Z,4.50
2017-07-28T05:59:01.333Z,5.10
2017-07-28T06:01:28.722Z,4.73
2017-07-28T06:03:55.541Z,4.80
2017-07-28T06:06:22.333Z,5.03
2017-07-28T06:08:49.778Z,3.87
2017-07-28T06:11:16.581Z,5.33
2017-07-28T06:13:43.662Z,4.70
2017-07-28T06:16:10.458Z,3.30
2017-07-28T06:18:37.278Z,3.70
2017-07-28T06:21:04.067Z,3.20
2017-07-28T06:23:30.828Z,3.60
2017-07-28T06:25:57.632Z,4.03
2017-07-28T06:28:24.372Z,3.33
2017-07-28T06:30:51.149Z,3.10
2017-07-28T06:33:17.948Z,2.90
2017-07-28T06:35:44.733Z,3.17
2017-07-28T06:38:11.494Z,3.40
2017-07-28T06:40:38.312Z,2.93
2017-07-28T06:43:05.135Z,2.40
2017-07-28T06:45:31.883Z,3.10
2017-07-28T06:47:59.030Z,3.30
2017-07-28T06:50:25.808Z,2.97
2017-07-28T06:52:52.546Z,2.60
2017-07-28T06:55:19.345Z,2.67
2017-07-28T06:57:46.099Z,2.40
2017-07-28T07:00:13.316Z,3.60
2017-07-28T07:02:40.116Z,2.53
2017-07-28T07:05:06.894Z,1.90
2017-07-28T07:07:33.913Z,2.53
2017-07-28T07:10:00.714Z,2.77
2017-07-28T07:12:27.468Z,2.60
2017-07-28T07:14:54.237Z,2.40
2017-07-28T07:17:21.042Z,2.33
2017-07-28T07:19:47.824Z,2.17
2017-07-28T07:22:14.586Z,3.17
2017-07-28T07:24:41.394Z,3.23
2017-07-28T07:27:08.128Z,2.73
2017-07-28T07:29:34.892Z,2.63
2017-07-28T07:32:01.696Z,2.50
2017-07-28T07:34:28.481Z,2.10
2017-07-28T07:36:55.270Z,2.37
2017-07-28T07:39:22.053Z,2.87
2017-07-28T07:41:48.810Z,2.80
2017-07-28T07:44:15.594Z,2.70
2017-07-28T07:46:42.395Z,2.77
2017-07-28T07:49:09.131Z,2.73
2017-07-28T07:51:35.889Z,3.03
2017-07-28T07:54:02.698Z,4.80
2017-07-28T07:56:29.444Z,3.00
2017-07-28T07:58:56.196Z,3.37
2017-07-28T08:01:23.013Z,3.07
2017-07-28T08:03:49.764Z,3.10
2017-07-28T08:06:16.523Z,2.60
2017-07-28T08:08:43.333Z,2.60
2017-07-28T08:11:10.094Z,4.27
2017-07-28T08:13:36.870Z,3.73
2017-07-28T08:16:03.686Z,2.40
2017-07-28T08:18:30.424Z,2.77
2017-07-28T08:20:57.168Z,2.70
2017-07-28T08:23:24.518Z,2.90
2017-07-28T08:25:51.268Z,2.60
2017-07-28T08:28:18.038Z,3.60
2017-07-28T08:30:44.858Z,2.97
2017-07-28T08:33:11.623Z,3.00
2017-07-28T08:35:38.413Z,4.37
2017-07-28T08:38:05.230Z,3.63
2017-07-28T08:40:31.998Z,3.40
2017-07-28T08:42:58.747Z,3.93
2017-07-28T08:45:25.531Z,2.77
2017-07-28T08:47:52.320Z,3.50
2017-07-28T08:50:19.061Z,2.40
2017-07-28T08:52:46.527Z,3.50
2017-07-28T08:55:13.291Z,3.20
2017-07-28T08:57:40.064Z,3.70
2017-07-28T09:00:06.876Z,4.10
2017-07-28T09:02:33.643Z,4.27
2017-07-28T09:05:00.406Z,3.67
2017-07-28T09:07:27.223Z,3.63
2017-07-28T09:09:53.996Z,2.77
2017-07-28T09:12:20.758Z,3.60
2017-07-28T09:14:47.570Z,3.87
2017-07-28T09:17:14.342Z,4.30
2017-07-28T09:19:41.102Z,3.17
2017-07-28T09:22:07.901Z,3.17
2017-07-28T09:24:34.662Z,3.20
2017-07-28T09:27:01.454Z,2.83
2017-07-28T09:29:28.270Z,3.40
2017-07-28T09:31:55.337Z,3.50
2017-07-28T09:34:22.118Z,3.00
2017-07-28T09:36:48.909Z,3.60
2017-07-28T09:39:15.712Z,3.33
2017-07-28T09:41:42.466Z,3.30
2017-07-28T09:44:09.260Z,3.10
2017-07-28T09:46:36.276Z,3.53
2017-07-28T09:49:03.022Z,2.60
2017-07-28T09:51:29.837Z,3.80
2017-07-28T09:53:56.606Z,2.33
2017-07-28T09:56:23.389Z,2.90
2017-07-28T09:58:50.517Z,1.93
2017-07-28T10:01:17.579Z,2.70
2017-07-28T10:03:44.323Z,2.17
2017-07-28T10:06:11.134Z,2.60
2017-07-28T10:08:37.879Z,3.60
2017-07-28T10:11:04.652Z,2.40
2017-07-28T10:13:31.487Z,2.60
2017-07-28T10:15:58.279Z,2.33
2017-07-28T10:18:25.032Z,2.83
2017-07-28T10:20:51.827Z,2.20
2017-07-28T10:23:18.569Z,1.80
2017-07-28T10:25:45.316Z,2.30
2017-07-28T10:28:12.094Z,2.33
2017-07-28T10:30:38.883Z,2.37
2017-07-28T10:33:05.673Z,2.00
2017-07-28T10:35:32.474Z,2.23
2017-07-28T10:37:59.228Z,1.80
2017-07-28T10:40:25.986Z,1.17
2017-07-28T10:42:52.970Z,2.80
2017-07-28T10:45:19.742Z,2.60
2017-07-28T10:47:47.100Z,3.00
2017-07-28T10:50:13.885Z,1.60
2017-07-28T10:52:40.655Z,1.80
2017-07-28T10:55:07.434Z,1.43
2017-07-28T10:57:34.208Z,1.50
2017-07-28T11:00:00.970Z,1.30
2017-07-28T11:02:28.910Z,1.40
2017-07-28T11:04:56.869Z,1.10
2017-07-28T11:07:24.838Z,1.63
2017-07-28T11:09:52.619Z,1.57
2017-07-28T11:12:23.084Z,1.30
2017-07-28T11:14:49.832Z,1.17
2017-07-28T11:17:16.575Z,1.63
2017-07-28T11:22:16.406Z,1.00
2017-07-28T11:24:43.203Z,1.30
2017-07-28T11:27:14.933Z,1.63
2017-07-28T11:29:45.978Z,1.63
2017-07-28T11:32:12.745Z,1.53
2017-07-28T11:34:40.205Z,1.77
2017-07-28T11:37:07.007Z,1.27
2017-07-28T11:39:33.774Z,1.60
2017-07-28T11:42:00.524Z,1.50
2017-07-28T11:44:27.347Z,1.80
2017-07-28T11:46:54.122Z,1.77
2017-07-28T11:49:20.913Z,2.00
2017-07-28T11:51:47.692Z,2.00
2017-07-28T11:54:14.470Z,2.50
2017-07-28T11:56:41.222Z,3.30
2017-07-28T11:59:08.007Z,1.63
2017-07-28T12:01:34.762Z,2.27
2017-07-28T12:04:01.498Z,1.47
2017-07-28T12:06:28.314Z,1.37
2017-07-28T12:08:55.091Z,1.30
2017-07-28T12:11:21.866Z,1.40
2017-07-28T12:13:48.670Z,1.57
2017-07-28T12:16:16.050Z,2.00
2017-07-28T12:18:42.905Z,1.67
2017-07-28T12:21:09.684Z,1.90
2017-07-28T12:23:36.431Z,1.80
2017-07-28T12:26:03.180Z,1.70
2017-07-28T12:28:29.968Z,1.20
2017-07-28T12:30:56.729Z,1.30
2017-07-28T12:33:23.485Z,1.70
2017-07-28T12:35:50.259Z,1.60
2017-07-28T12:38:16.999Z,1.87
2017-07-28T12:40:44.494Z,2.10
2017-07-28T12:43:11.892Z,1.90
2017-07-28T12:45:38.964Z,1.60
2017-07-28T12:48:05.763Z,1.40
2017-07-28T12:50:32.562Z,1.70
2017-07-28T12:53:01.478Z,1.83
2017-07-28T12:55:29.125Z,1.87
2017-07-28T12:58:07.906Z,2.00
2017-07-28T13:00:36.876Z,1.93
2017-07-28T13:03:04.595Z,2.20
2017-07-28T13:05:31.390Z,2.17
2017-07-28T13:08:01.606Z,1.80
2017-07-28T13:10:29.811Z,1.17
2017-07-28T13:12:56.622Z,2.03
2017-07-28T13:15:26.754Z,0.83
2017-07-28T13:17:55.136Z,2.10
2017-07-28T13:20:22.841Z,1.60
2017-07-28T13:22:49.603Z,1.00
2017-07-28T13:25:16.360Z,1.70
2017-07-28T13:27:43.156Z,1.90
2017-07-28T13:30:10.034Z,2.07
2017-07-28T13:32:37.432Z,2.20
2017-07-28T13:35:04.229Z,2.17
2017-07-28T13:37:31.026Z,2.23
2017-07-28T13:39:57.759Z,1.60
2017-07-28T13:42:24.565Z,2.60
2017-07-28T13:44:51.317Z,1.70
2017-07-28T13:47:18.094Z,1.30
2017-07-28T13:49:44.899Z,1.60
2017-07-28T13:52:11.665Z,1.40
2017-07-28T13:54:38.425Z,2.00
2017-07-28T13:57:05.240Z,1.73
2017-07-28T13:59:32.005Z,2.30
2017-07-28T14:01:58.755Z,4.37
2017-07-28T14:04:25.574Z,1.50
2017-07-28T14:06:52.324Z,1.73
2017-07-28T14:09:19.102Z,1.27
2017-07-28T14:11:45.888Z,2.17
2017-07-28T14:14:12.691Z,1.77
2017-07-28T14:16:39.453Z,0.97
2017-07-28T14:19:06.252Z,2.43
2017-07-28T14:21:33.015Z,2.10
2017-07-28T14:23:59.783Z,1.73
2017-07-28T14:26:26.565Z,2.10
2017-07-28T14:28:53.602Z,1.80
2017-07-28T14:31:20.933Z,2.10
2017-07-28T14:33:48.060Z,0.67
2017-07-28T14:36:14.809Z,1.13
2017-07-28T14:38:41.551Z,1.27
2017-07-28T14:41:08.333Z,1.57
2017-07-28T14:43:35.104Z,1.10
2017-07-28T14:46:02.486Z,2.20
2017-07-28T14:48:29.408Z,1.90
2017-07-28T14:50:56.178Z,2.00
2017-07-28T14:53:22.934Z,2.00
2017-07-28T14:55:49.724Z,1.50
2017-07-28T14:58:16.576Z,1.90
2017-07-28T15:00:43.341Z,1.30
2017-07-28T15:03:10.831Z,1.63
2017-07-28T15:05:37.584Z,2.90
2017-07-28T15:08:04.354Z,1.43
2017-07-28T15:10:31.144Z,1.83
2017-07-28T15:12:57.895Z,1.80
2017-07-28T15:15:24.705Z,1.97
2017-07-28T15:17:51.488Z,1.53
2017-07-28T15:20:18.222Z,1.77
2017-07-28T15:22:44.990Z,1.90
2017-07-28T15:25:11.791Z,2.97
2017-07-28T15:27:38.548Z,2.10
2017-07-28T15:30:05.308Z,2.80
2017-07-28T15:32:32.091Z,2.67
2017-07-28T15:34:58.831Z,2.10
2017-07-28T15:37:26.305Z,2.47
2017-07-28T15:39:53.114Z,1.63
2017-07-28T15:42:19.879Z,1.90
2017-07-28T15:44:47.229Z,1.40
2017-07-28T15:47:14.013Z,1.70
2017-07-28T15:49:40.789Z,1.23
2017-07-28T15:52:08.320Z,1.90
2017-07-28T15:54:35.111Z,1.20
2017-07-28T15:57:01.853Z,1.47
2017-07-28T15:59:28.586Z,1.10
2017-07-28T16:01:56.133Z,0.90
2017-07-28T16:04:22.893Z,1.27
2017-07-28T16:06:49.627Z,1.23
2017-07-28T16:09:16.407Z,1.93
2017-07-28T16:11:43.165Z,1.50
2017-07-28T16:14:09.911Z,1.30
2017-07-28T16:16:37.446Z,1.33
2017-07-28T16:19:04.242Z,1.20
2017-07-28T16:21:30.992Z,1.50
2017-07-28T16:23:58.447Z,1.37
2017-07-28T16:26:25.215Z,1.30
2017-07-28T16:28:51.989Z,1.40
2017-07-28T16:31:18.793Z,1.20
2017-07-28T16:33:45.547Z,1.80
2017-07-28T16:36:12.308Z,1.57
2017-07-28T16:38:39.122Z,1.67
2017-07-28T16:41:05.882Z,1.20
2017-07-28T16:43:32.635Z,1.70
2017-07-28T16:45:59.677Z,1.17
2017-07-28T16:48:26.423Z,1.40
2017-07-28T16:50:53.208Z,1.17
2017-07-28T16:53:20.003Z,1.50
2017-07-28T16:55:46.768Z,2.50
2017-07-28T16:58:14.134Z,1.50
2017-07-28T17:00:40.926Z,1.90
2017-07-28T17:03:07.680Z,2.20
2017-07-28T17:05:34.420Z,2.40
2017-07-28T17:08:01.221Z,2.13
2017-07-28T17:10:27.986Z,1.20
2017-07-28T17:12:54.753Z,1.63
2017-07-28T17:15:21.538Z,2.50
2017-07-28T17:17:48.324Z,2.43
2017-07-28T17:20:15.122Z,2.20
2017-07-28T17:22:41.964Z,2.00
2017-07-28T17:25:08.738Z,2.17
2017-07-28T17:27:35.493Z,1.70
2017-07-28T17:30:02.299Z,2.17
2017-07-28T17:32:29.127Z,2.50
2017-07-28T17:34:56.393Z,2.13
2017-07-28T17:37:23.235Z,1.97
2017-07-28T17:39:49.982Z,1.73
2017-07-28T17:42:16.739Z,1.70
2017-07-28T17:44:43.554Z,1.37
2017-07-28T17:47:10.315Z,1.93
2017-07-28T17:49:37.998Z,2.63
2017-07-28T17:52:05.558Z,2.43
2017-07-28T17:54:32.337Z,1.70
2017-07-28T17:56:59.093Z,1.60
2017-07-28T17:59:25.880Z,2.17
2017-07-28T18:01:52.647Z,2.60
2017-07-28T18:04:19.395Z,2.57
2017-07-28T18:06:46.199Z,1.80
2017-07-28T18:09:12.943Z,2.00
2017-07-28T18:11:39.715Z,2.43
2017-07-28T18:14:06.512Z,1.93
2017-07-28T18:16:33.260Z,2.07
2017-07-28T18:19:00.062Z,2.70
2017-07-28T18:21:26.851Z,2.40
2017-07-28T18:23:53.666Z,2.43
2017-07-28T18:26:20.428Z,1.80
2017-07-28T18:28:47.230Z,2.40
2017-07-28T18:31:13.982Z,2.67
2017-07-28T18:33:40.773Z,2.10
2017-07-28T18:36:07.571Z,2.10
2017-07-28T18:38:34.324Z,2.40
2017-07-28T18:41:01.102Z,2.70
2017-07-28T18:43:27.882Z,2.40
2017-07-28T18:45:54.652Z,2.30
2017-07-28T18:48:21.414Z,2.50
2017-07-28T18:50:48.241Z,2.30
2017-07-28T18:53:15.000Z,2.60
2017-07-28T18:55:41.770Z,2.87
2017-07-28T18:58:08.576Z,2.37
2017-07-28T19:00:35.382Z,2.07
2017-07-28T19:03:02.147Z,2.10
2017-07-28T19:05:28.974Z,2.17
2017-07-28T19:07:56.054Z,2.57
2017-07-28T19:10:22.788Z,2.40
2017-07-28T19:12:49.617Z,3.10
2017-07-28T19:15:16.374Z,2.40
2017-07-28T19:17:43.150Z,2.97
2017-07-28T19:20:09.936Z,3.07
2017-07-28T19:22:37.310Z,3.70
2017-07-28T19:25:04.051Z,4.53
2017-07-28T19:27:30.836Z,3.40
2017-07-28T19:29:57.951Z,4.00
2017-07-28T19:32:24.720Z,2.90
2017-07-28T19:34:51.530Z,2.77
2017-07-28T19:37:19.060Z,2.27
2017-07-28T19:39:45.838Z,2.70
2017-07-28T19:42:13.512Z,2.30
2017-07-28T19:44:40.270Z,2.37
2017-07-28T19:47:07.022Z,3.30
2017-07-28T19:49:33.803Z,2.60
2017-07-28T19:52:00.566Z,2.93
2017-07-28T19:54:27.309Z,3.30
2017-07-28T19:56:54.102Z,3.03
2017-07-28T19:59:20.858Z,2.30
2017-07-28T20:01:47.631Z,2.70
2017-07-28T20:04:14.421Z,2.40
2017-07-28T20:06:41.194Z,2.00
2017-07-28T20:09:07.948Z,2.40
2017-07-28T20:11:34.751Z,7.87
2017-07-28T20:14:01.562Z,2.93
2017-07-28T20:16:28.358Z,2.30
2017-07-28T20:18:55.920Z,2.57
2017-07-28T20:21:22.672Z,2.80
2017-07-28T20:23:49.611Z,2.50
2017-07-28T20:26:16.432Z,2.53
2017-07-28T20:28:43.185Z,2.33
2017-07-28T20:31:09.923Z,3.47
2017-07-28T20:33:36.708Z,3.17
2017-07-28T20:36:03.450Z,3.23
2017-07-28T20:38:30.226Z,2.77
2017-07-28T20:40:57.041Z,2.40
2017-07-28T20:43:23.805Z,3.10
2017-07-28T20:45:50.571Z,3.27
2017-07-28T20:48:17.662Z,3.37
2017-07-28T20:50:44.438Z,3.07
2017-07-28T20:53:11.190Z,2.50
2017-07-28T20:55:38.240Z,2.90
2017-07-28T20:58:05.024Z,3.57
2017-07-28T21:00:31.979Z,3.20
2017-07-28T21:02:58.946Z,3.20
2017-07-28T21:05:25.993Z,3.40
2017-07-28T21:07:52.875Z,3.60
2017-07-28T21:10:19.686Z,2.93
2017-07-28T21:12:46.464Z,2.83
2017-07-28T21:15:19.982Z,3.00
2017-07-28T21:17:46.923Z,2.80
2017-07-28T21:20:14.039Z,3.10
2017-07-28T21:22:40.871Z,3.63
2017-07-28T21:25:07.665Z,3.53
2017-07-28T21:27:34.503Z,2.57
2017-07-28T21:30:01.307Z,3.60
2017-07-28T21:32:28.725Z,3.30
2017-07-28T21:34:55.559Z,3.00
2017-07-28T21:37:22.351Z,3.40
2017-07-28T21:39:49.100Z,3.00
2017-07-28T21:42:15.881Z,3.47
2017-07-28T21:44:42.679Z,3.37
2017-07-28T21:47:09.424Z,2.83
2017-07-28T21:49:36.172Z,3.17
2017-07-28T21:52:02.974Z,3.13
2017-07-28T21:54:29.729Z,3.80
2017-07-28T21:56:56.492Z,3.57
2017-07-28T21:59:23.268Z,3.03
2017-07-28T22:01:50.022Z,2.80
2017-07-28T22:04:16.774Z,3.67
2017-07-28T22:06:43.581Z,3.63
2017-07-28T22:09:10.347Z,3.40
2017-07-28T22:11:37.109Z,3.27
2017-07-28T22:14:03.922Z,4.00
2017-07-28T22:16:30.686Z,3.60
2017-07-28T22:18:58.080Z,3.73
